sensor_id;sensor_type;location;lat;lon;timestamp;pressure;altitude;pressure_sealevel;temperature
49557;BMP280;35462;45.048;7.666;2022-12-18T00:07:20;99996.63;;;6.28
49557;BMP280;35462;45.048;7.666;2022-12-18T00:22:35;100016.50;;;6.25
49557;BMP280;35462;45.048;7.666;2022-12-18T00:37:51;100028.34;;;6.19
49557;BMP280;35462;45.048;7.666;2022-12-18T00:53:07;100022.19;;;6.27
49557;BMP280;35462;45.048;7.666;2022-12-18T01:08:23;100038.75;;;6.43
49557;BMP280;35462;45.048;7.666;2022-12-18T01:23:39;100064.22;;;6.39
49557;BMP280;35462;45.048;7.666;2022-12-18T01:38:55;100073.81;;;6.63
49557;BMP280;35462;45.048;7.666;2022-12-18T01:54:11;100082.25;;;6.68
49557;BMP280;35462;45.048;7.666;2022-12-18T02:09:35;100092.94;;;6.75
49557;BMP280;35462;45.048;7.666;2022-12-18T02:40:29;100107.78;;;6.68
49557;BMP280;35462;45.048;7.666;2022-12-18T02:55:58;100131.00;;;6.50
49557;BMP280;35462;45.048;7.666;2022-12-18T03:11:15;100125.28;;;6.33
49557;BMP280;35462;45.048;7.666;2022-12-18T03:26:32;100151.00;;;6.39
49557;BMP280;35462;45.048;7.666;2022-12-18T03:57:23;100161.34;;;6.32
49557;BMP280;35462;45.048;7.666;2022-12-18T04:12:43;100170.28;;;6.43
49557;BMP280;35462;45.048;7.666;2022-12-18T04:28:02;100188.28;;;6.41
49557;BMP280;35462;45.048;7.666;2022-12-18T04:43:19;100201.53;;;6.45
49557;BMP280;35462;45.048;7.666;2022-12-18T04:58:35;100217.41;;;6.36
49557;BMP280;35462;45.048;7.666;2022-12-18T05:13:51;100231.34;;;6.37
49557;BMP280;35462;45.048;7.666;2022-12-18T05:29:07;100240.47;;;6.27
49557;BMP280;35462;45.048;7.666;2022-12-18T05:44:22;100271.69;;;6.29
49557;BMP280;35462;45.048;7.666;2022-12-18T05:59:38;100296.34;;;6.36
49557;BMP280;35462;45.048;7.666;2022-12-18T06:14:54;100301.84;;;6.43
49557;BMP280;35462;45.048;7.666;2022-12-18T06:30:10;100321.34;;;6.42
49557;BMP280;35462;45.048;7.666;2022-12-18T06:45:26;100334.94;;;6.44
49557;BMP280;35462;45.048;7.666;2022-12-18T07:00:42;100356.66;;;6.41
49557;BMP280;35462;45.048;7.666;2022-12-18T07:16:14;100374.16;;;6.49
49557;BMP280;35462;45.048;7.666;2022-12-18T07:31:30;100390.19;;;6.44
49557;BMP280;35462;45.048;7.666;2022-12-18T07:46:47;100417.03;;;6.50
49557;BMP280;35462;45.048;7.666;2022-12-18T08:02:03;100417.16;;;6.65
49557;BMP280;35462;45.048;7.666;2022-12-18T08:17:19;100435.56;;;6.77
49557;BMP280;35462;45.048;7.666;2022-12-18T08:32:35;100442.34;;;6.90
49557;BMP280;35462;45.048;7.666;2022-12-18T08:47:52;100453.94;;;7.13
49557;BMP280;35462;45.048;7.666;2022-12-18T09:03:13;100467.31;;;7.32
49557;BMP280;35462;45.048;7.666;2022-12-18T09:18:30;100489.13;;;7.44
49557;BMP280;35462;45.048;7.666;2022-12-18T09:33:45;100505.91;;;7.52
49557;BMP280;35462;45.048;7.666;2022-12-18T09:49:07;100505.53;;;7.65
49557;BMP280;35462;45.048;7.666;2022-12-18T10:04:28;100518.09;;;7.84
49557;BMP280;35462;45.048;7.666;2022-12-18T10:35:19;100505.75;;;8.00
49557;BMP280;35462;45.048;7.666;2022-12-18T10:50:37;100502.06;;;8.04
49557;BMP280;35462;45.048;7.666;2022-12-18T11:06:10;100510.94;;;8.12
49557;BMP280;35462;45.048;7.666;2022-12-18T11:21:28;100489.75;;;8.24
49557;BMP280;35462;45.048;7.666;2022-12-18T11:36:46;100488.34;;;8.26
49557;BMP280;35462;45.048;7.666;2022-12-18T11:52:16;100482.38;;;8.45
49557;BMP280;35462;45.048;7.666;2022-12-18T12:39:01;100454.59;;;9.00
49557;BMP280;35462;45.048;7.666;2022-12-18T12:54:23;100453.78;;;9.15
49557;BMP280;35462;45.048;7.666;2022-12-18T13:56:03;100422.63;;;9.24
49557;BMP280;35462;45.048;7.666;2022-12-18T14:11:22;100432.16;;;9.10
49557;BMP280;35462;45.048;7.666;2022-12-18T14:26:38;100426.75;;;9.03
49557;BMP280;35462;45.048;7.666;2022-12-18T14:41:55;100435.00;;;9.01
49557;BMP280;35462;45.048;7.666;2022-12-18T14:57:29;100433.88;;;8.83
49557;BMP280;35462;45.048;7.666;2022-12-18T15:28:21;100456.97;;;8.71
49557;BMP280;35462;45.048;7.666;2022-12-18T15:43:40;100465.31;;;8.57
49557;BMP280;35462;45.048;7.666;2022-12-18T15:58:56;100481.97;;;8.43
49557;BMP280;35462;45.048;7.666;2022-12-18T16:14:23;100483.25;;;8.33
49557;BMP280;35462;45.048;7.666;2022-12-18T16:29:39;100485.94;;;8.21
49557;BMP280;35462;45.048;7.666;2022-12-18T16:44:55;100493.34;;;8.16
49557;BMP280;35462;45.048;7.666;2022-12-18T17:00:12;100499.00;;;8.02
49557;BMP280;35462;45.048;7.666;2022-12-18T17:15:28;100501.31;;;8.04
49557;BMP280;35462;45.048;7.666;2022-12-18T17:30:44;100494.56;;;7.91
49557;BMP280;35462;45.048;7.666;2022-12-18T17:46:02;100527.91;;;7.83
49557;BMP280;35462;45.048;7.666;2022-12-18T18:01:22;100527.38;;;7.66
49557;BMP280;35462;45.048;7.666;2022-12-18T18:16:40;100552.91;;;7.62
49557;BMP280;35462;45.048;7.666;2022-12-18T18:31:57;100532.13;;;7.60
49557;BMP280;35462;45.048;7.666;2022-12-18T18:47:12;100561.81;;;7.57
49557;BMP280;35462;45.048;7.666;2022-12-18T19:02:28;100556.31;;;7.50
49557;BMP280;35462;45.048;7.666;2022-12-18T19:17:44;100553.59;;;7.47
49557;BMP280;35462;45.048;7.666;2022-12-18T19:33:00;100558.66;;;7.40
49557;BMP280;35462;45.048;7.666;2022-12-18T19:48:15;100570.28;;;7.39
49557;BMP280;35462;45.048;7.666;2022-12-18T20:03:31;100574.91;;;7.30
49557;BMP280;35462;45.048;7.666;2022-12-18T20:18:47;100601.91;;;7.15
49557;BMP280;35462;45.048;7.666;2022-12-18T20:34:03;100624.28;;;7.09
49557;BMP280;35462;45.048;7.666;2022-12-18T20:49:19;100604.09;;;7.01
49557;BMP280;35462;45.048;7.666;2022-12-18T21:04:35;100599.91;;;7.00
49557;BMP280;35462;45.048;7.666;2022-12-18T21:19:52;100611.09;;;6.97
49557;BMP280;35462;45.048;7.666;2022-12-18T21:35:09;100609.03;;;6.91
49557;BMP280;35462;45.048;7.666;2022-12-18T21:50:25;100597.06;;;6.81
49557;BMP280;35462;45.048;7.666;2022-12-18T22:05:40;100615.81;;;6.80
49557;BMP280;35462;45.048;7.666;2022-12-18T22:21:01;100621.88;;;6.92
49557;BMP280;35462;45.048;7.666;2022-12-18T22:36:17;100624.84;;;7.03
49557;BMP280;35462;45.048;7.666;2022-12-18T22:51:32;100608.50;;;7.09
49557;BMP280;35462;45.048;7.666;2022-12-18T23:06:48;100606.59;;;7.10
49557;BMP280;35462;45.048;7.666;2022-12-18T23:22:04;100601.00;;;6.99
49557;BMP280;35462;45.048;7.666;2022-12-18T23:37:20;100596.38;;;6.84
49557;BMP280;35462;45.048;7.666;2022-12-18T23:52:35;100595.50;;;6.68
